Time;durP1;ratioP1;P1;durP2;ratioP2;P2;SDS_P1;SDS_P2;PMS_P1;PMS_P2;Temp;Humidity;BMP_temperature;BMP_pressure;BME280_temperature;BME280_humidity;BME280_pressure;Samples;Min_cycle;Max_cycle;Signal;HPM_P1;HPM_P2
2022/05/28 00:00:13;;;;;;;;;;;;;;;21.17;39.04;99728.03;4406176;32;20029;-83
2022/05/28 00:02:40;;;;;;;;;;;;;;;21.54;38.02;99724.34;4407528;32;19994;-83
2022/05/28 00:05:07;;;;;;;;;;;;;;;21.39;38.37;99722.16;4402790;32;20053;-83
2022/05/28 00:07:34;;;;;;;;;;;;;;;21.26;39.20;99726.91;4407150;32;20036;-85
2022/05/28 00:10:01;;;;;;;;;;;;;;;21.39;39.04;99732.69;4405924;32;19986;-84
2022/05/28 00:12:31;;;;;;;;;;;;;;;21.41;39.61;99729.09;4403960;32;20277;-83
2022/05/28 00:14:58;;;;;;;;;;;;;;;21.64;38.13;99728.41;4404565;32;20037;-83
2022/05/28 00:17:25;;;;;;;;;;;;;;;21.47;38.36;99723.62;4409215;32;20011;-84
2022/05/28 00:19:52;;;;;;;;;;;;;;;21.49;38.60;99726.22;4414972;32;19985;-85
2022/05/28 00:22:19;;;;;;;;;;;;;;;21.62;38.02;99722.31;4409684;32;19993;-84
2022/05/28 00:24:46;;;;;;;;;;;;;;;21.74;37.18;99723.69;4412439;32;20254;-84
2022/05/28 00:27:13;;;;;;;;;;;;;;;21.56;37.65;99711.97;4411047;32;20013;-87
2022/05/28 00:29:40;;;;;;;;;;;;;;;21.46;38.26;99707.88;4399590;32;19978;-85
2022/05/28 00:32:07;;;;;;;;;;;;;;;21.57;37.65;99718.97;4417719;32;19991;-85
2022/05/28 00:34:34;;;;;;;;;;;;;;;21.21;38.55;99737.53;4416476;32;20060;-85
2022/05/28 00:37:01;;;;;;;;;;;;;;;21.39;37.92;99745.84;4423572;32;20695;-85
2022/05/28 00:39:28;;;;;;;;;;;;;;;21.41;38.19;99749.28;4420165;32;19992;-85
2022/05/28 00:41:55;;;;;;;;;;;;;;;21.39;38.14;99761.66;4420325;32;19974;-85
2022/05/28 00:44:22;;;;;;;;;;;;;;;21.12;38.85;99765.00;4422460;32;20706;-86
2022/05/28 00:46:49;;;;;;;;;;;;;;;21.10;38.55;99765.97;4417415;32;20372;-85
2022/05/28 00:49:18;;;;;;;;;;;;;;;21.19;37.80;99768.34;4399842;32;20353;-85
2022/05/28 00:51:46;;;;;;;;;;;;;;;21.25;37.01;99769.91;4406936;32;20045;-85
2022/05/28 00:54:13;;;;;;;;;;;;;;;21.32;37.47;99767.06;4423401;32;20022;-86
2022/05/28 00:56:40;;;;;;;;;;;;;;;21.36;36.90;99758.19;4416750;32;20008;-85
2022/05/28 00:59:07;;;;;;;;;;;;;;;21.16;37.32;99755.25;4425968;32;19985;-84
2022/05/28 01:01:35;;;;;;;;;;;;;;;21.17;37.03;99751.72;4403751;32;19986;-84
2022/05/28 01:04:02;;;;;;;;;;;;;;;21.14;37.34;99746.53;4400408;32;20040;-85
2022/05/28 01:06:28;;;;;;;;;;;;;;;21.23;37.01;99735.75;4400599;32;19998;-85
2022/05/28 01:09:04;;;;;;;;;;;;;;;21.01;37.62;99730.22;4400746;32;20032;-85
2022/05/28 01:11:36;;;;;;;;;;;;;;;21.02;37.68;99717.94;4386633;32;19978;-85
2022/05/28 01:14:12;;;;;;;;;;;;;;;21.28;37.15;99718.03;4386599;32;20035;-86
2022/05/28 01:16:40;;;;;;;;;;;;;;;20.90;37.88;99714.75;4389108;32;20354;-86
2022/05/28 01:19:07;;;;;;;;;;;;;;;20.85;38.00;99707.88;4389247;32;20660;-86
2022/05/28 01:21:34;;;;;;;;;;;;;;;20.84;38.17;99704.41;4403133;32;20338;-85
2022/05/28 01:24:06;;;;;;;;;;;;;;;20.76;38.68;99708.12;4409249;32;20335;-86
2022/05/28 01:26:52;;;;;;;;;;;;;;;20.73;38.94;99702.97;4401146;32;20334;-86
2022/05/28 01:29:19;;;;;;;;;;;;;;;20.83;38.45;99705.28;4414383;32;19986;-86
2022/05/28 01:31:48;;;;;;;;;;;;;;;20.62;39.05;99696.25;4396118;32;20000;-86
2022/05/28 01:34:16;;;;;;;;;;;;;;;20.88;38.35;99687.59;4400219;32;20024;-87
2022/05/28 01:36:43;;;;;;;;;;;;;;;20.66;39.37;99692.59;4386863;32;19990;-87
2022/05/28 01:39:11;;;;;;;;;;;;;;;20.58;40.25;99698.97;4409666;32;20023;-85
2022/05/28 01:41:38;;;;;;;;;;;;;;;20.65;39.92;99700.56;4387882;32;19994;-86
2022/05/28 01:44:07;;;;;;;;;;;;;;;20.75;39.95;99696.75;4401905;32;20017;-85
2022/05/28 01:46:34;;;;;;;;;;;;;;;20.63;39.67;99682.16;4388256;32;19990;-86
2022/05/28 01:49:01;;;;;;;;;;;;;;;20.74;39.62;99702.94;4387916;32;19993;-86
2022/05/28 01:51:29;;;;;;;;;;;;;;;20.86;38.93;99715.72;4388157;32;20037;-86
2022/05/28 01:54:11;;;;;;;;;;;;;;;20.81;39.64;99722.91;4394247;32;20119;-86
2022/05/28 01:56:40;;;;;;;;;;;;;;;20.66;40.50;99725.94;4402878;32;20049;-85
2022/05/28 01:59:08;;;;;;;;;;;;;;;20.78;39.46;99717.72;4394222;32;20035;-85
2022/05/28 02:01:34;;;;;;;;;;;;;;;20.75;39.38;99723.06;4401916;32;20061;-84
2022/05/28 02:04:05;;;;;;;;;;;;;;;20.80;40.00;99726.41;4395293;32;20644;-86
2022/05/28 02:06:33;;;;;;;;;;;;;;;20.66;39.78;99723.31;4405582;32;20017;-86
2022/05/28 02:09:00;;;;;;;;;;;;;;;20.76;39.82;99724.78;4410742;32;20029;-85
2022/05/28 02:11:28;;;;;;;;;;;;;;;20.69;40.40;99714.47;4416969;32;19982;-85
2022/05/28 02:14:01;;;;;;;;;;;;;;;20.75;40.31;99707.28;4402214;32;19993;-86
2022/05/28 02:16:36;;;;;;;;;;;;;;;20.72;41.36;99717.88;4401942;32;20410;-86
2022/05/28 02:19:04;;;;;;;;;;;;;;;20.67;41.07;99730.28;4371468;32;19994;-86
2022/05/28 02:21:38;;;;;;;;;;;;;;;20.57;41.34;99729.69;4391142;32;19970;-86
2022/05/28 02:24:08;;;;;;;;;;;;;;;20.60;40.94;99723.47;4399849;32;20102;-86
2022/05/28 02:26:44;;;;;;;;;;;;;;;20.62;41.02;99716.41;4402335;32;20311;-86
2022/05/28 02:29:11;;;;;;;;;;;;;;;20.66;40.70;99728.56;4417128;32;19978;-86
2022/05/28 02:31:41;;;;;;;;;;;;;;;20.52;41.83;99725.47;4402979;32;19974;-86
2022/05/28 02:34:09;;;;;;;;;;;;;;;20.52;41.83;99735.97;4407850;32;19994;-86
2022/05/28 02:36:35;;;;;;;;;;;;;;;20.53;41.87;99727.19;4412605;32;19998;-85
2022/05/28 02:39:02;;;;;;;;;;;;;;;20.57;42.42;99740.19;4402599;32;20001;-85
2022/05/28 02:41:29;;;;;;;;;;;;;;;20.69;41.65;99746.91;4409576;32;20394;-85
2022/05/28 02:43:56;;;;;;;;;;;;;;;20.60;42.56;99745.38;4387507;32;19983;-85
2022/05/28 02:46:23;;;;;;;;;;;;;;;20.72;41.06;99744.19;4401545;32;19987;-85
2022/05/28 02:48:50;;;;;;;;;;;;;;;20.56;41.56;99732.34;4394081;32;20821;-86
2022/05/28 02:51:19;;;;;;;;;;;;;;;20.61;41.29;99746.22;4401896;32;19999;-87
2022/05/28 02:53:47;;;;;;;;;;;;;;;20.43;41.69;99737.03;4404986;32;19990;-86
2022/05/28 02:56:13;;;;;;;;;;;;;;;20.49;41.54;99743.91;4416767;32;20085;-86
2022/05/28 02:58:41;;;;;;;;;;;;;;;20.42;41.46;99736.19;4416814;32;20017;-85
2022/05/28 03:01:28;;;;;;;;;;;;;;;20.43;41.44;99727.37;4416293;32;19974;-85
2022/05/28 03:03:56;;;;;;;;;;;;;;;20.58;41.09;99725.28;4411669;32;19990;-86
2022/05/28 03:06:23;;;;;;;;;;;;;;;20.27;42.05;99718.16;4390659;32;20044;-86
2022/05/28 03:08:50;;;;;;;;;;;;;;;20.12;42.48;99713.28;4401641;32;20795;-86
2022/05/28 03:11:16;;;;;;;;;;;;;;;20.15;42.24;99721.09;4402062;32;19993;-86
2022/05/28 03:13:44;;;;;;;;;;;;;;;20.26;41.95;99705.94;4409222;32;19982;-84
2022/05/28 03:16:11;;;;;;;;;;;;;;;20.37;41.91;99710.91;4401294;32;20060;-85
2022/05/28 03:18:38;;;;;;;;;;;;;;;20.37;42.01;99719.66;4401272;32;20036;-85
2022/05/28 03:21:05;;;;;;;;;;;;;;;20.42;41.81;99715.16;4392754;32;19974;-85
2022/05/28 03:23:32;;;;;;;;;;;;;;;20.32;42.44;99716.28;4397531;32;20393;-85
2022/05/28 03:26:12;;;;;;;;;;;;;;;20.46;41.65;99721.19;4416252;32;19997;-84
2022/05/28 03:28:40;;;;;;;;;;;;;;;20.25;42.07;99717.34;4413575;32;19989;-85
2022/05/28 03:31:07;;;;;;;;;;;;;;;20.25;42.17;99717.34;4390918;32;19997;-85
2022/05/28 03:33:34;;;;;;;;;;;;;;;20.26;41.72;99715.56;4394128;32;19994;-85
2022/05/28 03:36:01;;;;;;;;;;;;;;;20.16;42.21;99707.06;4387119;32;20425;-85
2022/05/28 03:38:28;;;;;;;;;;;;;;;20.26;41.97;99703.31;4387621;32;20029;-82
2022/05/28 03:40:54;;;;;;;;;;;;;;;20.21;42.27;99705.19;4401938;32;19982;-84
2022/05/28 03:43:21;;;;;;;;;;;;;;;20.21;41.77;99705.19;4397094;32;20004;-83
2022/05/28 03:45:48;;;;;;;;;;;;;;;20.30;41.53;99718.09;4401414;32;20001;-84
2022/05/28 03:48:15;;;;;;;;;;;;;;;20.20;41.72;99719.25;4401176;32;20002;-86
2022/05/28 03:50:42;;;;;;;;;;;;;;;19.88;42.58;99720.88;4387201;32;20692;-86
2022/05/28 03:53:09;;;;;;;;;;;;;;;19.80;43.32;99720.19;4401955;32;19974;-86
2022/05/28 03:55:36;;;;;;;;;;;;;;;19.76;43.24;99726.44;4409594;32;20055;-85
2022/05/28 03:58:04;;;;;;;;;;;;;;;19.93;42.93;99723.38;4414756;32;19990;-85
2022/05/28 04:00:31;;;;;;;;;;;;;;;20.14;42.11;99712.37;4396139;32;19992;-85
2022/05/28 04:02:58;;;;;;;;;;;;;;;19.98;42.48;99717.13;4387142;32;20431;-86
2022/05/28 04:05:25;;;;;;;;;;;;;;;20.03;42.49;99713.53;4400792;32;20327;-86
2022/05/28 04:07:52;;;;;;;;;;;;;;;19.84;43.12;99708.69;4400778;32;19993;-86
2022/05/28 04:10:19;;;;;;;;;;;;;;;20.05;42.83;99703.84;4389973;32;19996;-86
2022/05/28 04:12:46;;;;;;;;;;;;;;;19.91;42.86;99694.53;4412203;32;20417;-85
2022/05/28 04:15:13;;;;;;;;;;;;;;;20.00;42.91;99697.84;4415817;32;20001;-85
2022/05/28 04:17:40;;;;;;;;;;;;;;;20.06;42.63;99716.06;4394516;32;20288;-85
2022/05/28 04:20:08;;;;;;;;;;;;;;;20.04;43.17;99723.12;4416193;32;20046;-85
2022/05/28 04:22:35;;;;;;;;;;;;;;;20.04;42.72;99717.88;4409571;32;19989;-86
2022/05/28 04:25:02;;;;;;;;;;;;;;;19.95;43.81;99719.84;4407334;32;19986;-85
2022/05/28 04:27:29;;;;;;;;;;;;;;;20.14;42.89;99708.88;4402473;32;19982;-85
2022/05/28 04:30:02;;;;;;;;;;;;;;;20.15;42.90;99705.34;4407308;32;19981;-85
2022/05/28 04:32:29;;;;;;;;;;;;;;;20.18;43.45;99705.25;4412369;32;20047;-85
2022/05/28 04:34:56;;;;;;;;;;;;;;;20.25;43.16;99706.81;4407369;32;20053;-84
2022/05/28 04:37:23;;;;;;;;;;;;;;;20.22;43.19;99706.91;4398649;32;20276;-85
2022/05/28 04:39:50;;;;;;;;;;;;;;;20.26;43.23;99712.94;4400851;32;20053;-84
2022/05/28 04:42:17;;;;;;;;;;;;;;;20.24;43.30;99710.38;4400611;32;19989;-86
2022/05/28 04:44:44;;;;;;;;;;;;;;;20.26;43.37;99716.47;4408629;32;20002;-86
2022/05/28 04:47:12;;;;;;;;;;;;;;;20.31;42.89;99727.69;4411331;32;19973;-85
2022/05/28 04:49:38;;;;;;;;;;;;;;;20.53;42.18;99730.66;4410466;32;20014;-84
2022/05/28 04:52:05;;;;;;;;;;;;;;;20.41;42.78;99729.19;4399613;32;20056;-85
2022/05/28 04:54:32;;;;;;;;;;;;;;;20.38;42.48;99713.47;4400977;32;19996;-84
2022/05/28 04:56:59;;;;;;;;;;;;;;;20.55;42.23;99715.72;4400646;32;20116;-85
2022/05/28 04:59:26;;;;;;;;;;;;;;;20.43;43.18;99723.91;4400569;32;20064;-85
2022/05/28 05:01:53;;;;;;;;;;;;;;;20.58;41.70;99715.62;4408797;32;20044;-83
2022/05/28 05:04:20;;;;;;;;;;;;;;;20.37;42.01;99727.53;4386506;32;20036;-85
2022/05/28 05:06:47;;;;;;;;;;;;;;;20.33;42.41;99725.91;4402508;32;19999;-85
2022/05/28 05:09:14;;;;;;;;;;;;;;;20.24;43.68;99734.03;4405134;32;20347;-85
2022/05/28 05:11:41;;;;;;;;;;;;;;;20.42;42.64;99741.44;4386158;32;20002;-85
2022/05/28 05:14:08;;;;;;;;;;;;;;;20.50;42.59;99732.50;4400331;32;20751;-83
2022/05/28 05:16:35;;;;;;;;;;;;;;;20.43;43.37;99737.03;4404835;32;19986;-85
2022/05/28 05:19:02;;;;;;;;;;;;;;;20.54;43.44;99735.00;4412498;32;19982;-85
2022/05/28 05:21:28;;;;;;;;;;;;;;;20.52;42.79;99726.31;4394651;32;20017;-85
2022/05/28 05:23:56;;;;;;;;;;;;;;;20.51;42.35;99728.94;4406343;32;20033;-85
2022/05/28 05:26:23;;;;;;;;;;;;;;;20.60;42.01;99729.59;4400351;32;19989;-85
2022/05/28 05:28:50;;;;;;;;;;;;;;;20.63;42.21;99739.19;4400142;32;19977;-82
2022/05/28 05:31:17;;;;;;;;;;;;;;;20.70;41.33;99724.94;4399689;32;20041;-85
2022/05/28 05:33:44;;;;;;;;;;;;;;;20.72;42.29;99728.41;4388021;32;20006;-83
2022/05/28 05:36:11;;;;;;;;;;;;;;;20.65;43.56;99727.72;4392162;32;20788;-86
2022/05/28 05:38:39;;;;;;;;;;;;;;;20.73;43.57;99734.53;4386131;32;19986;-85
2022/05/28 05:41:06;;;;;;;;;;;;;;;20.75;42.50;99733.59;4386616;32;20014;-85
2022/05/28 05:43:33;;;;;;;;;;;;;;;20.81;42.58;99733.44;4386398;32;20480;-85
2022/05/28 05:46:00;;;;;;;;;;;;;;;20.87;42.33;99738.53;4394480;32;19978;-85
2022/05/28 05:48:28;;;;;;;;;;;;;;;20.89;43.37;99744.59;4393767;32;19993;-85
2022/05/28 05:50:55;;;;;;;;;;;;;;;20.89;43.91;99741.94;4396201;32;19982;-86
2022/05/28 05:53:22;;;;;;;;;;;;;;;20.85;44.15;99740.31;4399073;32;19974;-87
2022/05/28 05:55:49;;;;;;;;;;;;;;;20.99;42.53;99741.69;4399615;32;20016;-85
2022/05/28 05:58:16;;;;;;;;;;;;;;;20.98;42.92;99729.44;4400089;32;20284;-86
2022/05/28 06:00:43;;;;;;;;;;;;;;;21.00;42.63;99730.28;4410951;32;19974;-83
2022/05/28 06:03:15;;;;;;;;;;;;;;;20.90;43.58;99727.91;4414800;32;19985;-82
2022/05/28 06:05:42;;;;;;;;;;;;;;;21.11;42.82;99725.56;4406066;32;20775;-81
2022/05/28 06:08:09;;;;;;;;;;;;;;;21.12;43.13;99732.53;4399784;32;20294;-82
2022/05/28 06:10:37;;;;;;;;;;;;;;;21.26;42.15;99719.84;4401180;32;19982;-79
2022/05/28 06:13:04;;;;;;;;;;;;;;;21.30;41.91;99716.22;4404442;32;20081;-80
2022/05/28 06:15:31;;;;;;;;;;;;;;;21.39;42.83;99714.25;4399913;32;19992;-80
2022/05/28 06:17:58;;;;;;;;;;;;;;;21.36;43.84;99725.75;4384945;32;19996;-80
2022/05/28 06:20:25;;;;;;;;;;;;;;;21.67;42.77;99730.09;4409626;32;20483;-80
2022/05/28 06:22:52;;;;;;;;;;;;;;;21.77;43.14;99727.09;4412731;32;20005;-78
2022/05/28 06:25:19;;;;;;;;;;;;;;;22.34;39.25;99717.38;4409676;32;20415;-80
2022/05/28 06:27:46;;;;;;;;;;;;;;;22.08;39.89;99714.69;4404201;32;19993;-78
2022/05/28 06:30:13;;;;;;;;;;;;;;;22.10;39.38;99719.00;4416337;32;20390;-79
2022/05/28 06:32:40;;;;;;;;;;;;;;;22.06;40.05;99723.53;4411820;32;19978;-80
2022/05/28 06:35:08;;;;;;;;;;;;;;;22.10;39.79;99728.69;4406572;32;20694;-80
2022/05/28 06:37:36;;;;;;;;;;;;;;;22.16;39.84;99729.38;4401825;32;20033;-80
2022/05/28 06:40:04;;;;;;;;;;;;;;;21.83;41.00;99729.53;4407913;32;19986;-80
2022/05/28 06:42:30;;;;;;;;;;;;;;;21.93;39.70;99722.19;4401386;32;20395;-80
2022/05/28 06:44:57;;;;;;;;;;;;;;;22.06;39.62;99727.94;4401149;32;20061;-81
2022/05/28 06:47:24;;;;;;;;;;;;;;;22.17;38.64;99711.78;4413631;32;20066;-81
2022/05/28 06:52:37;;;;;;;;;;;;;;;21.64;43.22;99719.63;4401233;32;19990;-80
2022/05/28 06:55:04;;;;;;;;;;;;;;;21.94;41.89;99723.06;4401209;32;20053;-79
2022/05/28 06:57:31;;;;;;;;;;;;;;;21.62;41.71;99722.31;4401487;32;20033;-78
2022/05/28 06:59:58;;;;;;;;;;;;;;;21.59;42.23;99722.41;4401114;32;20029;-80
2022/05/28 07:02:25;;;;;;;;;;;;;;;21.75;40.84;99728.91;4400996;32;19996;-80
2022/05/28 07:04:52;;;;;;;;;;;;;;;21.72;42.17;99729.00;4401482;32;20069;-80
2022/05/28 07:07:20;;;;;;;;;;;;;;;22.08;40.33;99741.94;4401669;32;19996;-79
2022/05/28 07:09:47;;;;;;;;;;;;;;;22.18;40.13;99738.12;4406906;32;20387;-78
2022/05/28 07:12:14;;;;;;;;;;;;;;;22.15;40.60;99746.09;4409182;32;20319;-77
2022/05/28 07:14:41;;;;;;;;;;;;;;;22.33;39.99;99741.13;4407780;32;20036;-78
2022/05/28 07:17:08;;;;;;;;;;;;;;;22.08;40.62;99747.22;4410677;32;19990;-78
2022/05/28 07:19:35;;;;;;;;;;;;;;;22.08;40.62;99741.06;4409150;32;20044;-77
2022/05/28 07:22:02;;;;;;;;;;;;;;;22.04;40.24;99754.34;4406995;32;20040;-77
2022/05/28 07:24:29;;;;;;;;;;;;;;;21.75;41.47;99754.41;4407064;32;19977;-78
2022/05/28 07:26:56;;;;;;;;;;;;;;;21.73;41.96;99757.09;4404438;32;20387;-78
2022/05/28 07:29:23;;;;;;;;;;;;;;;21.83;41.05;99760.31;4400755;32;20037;-76
2022/05/28 07:31:49;;;;;;;;;;;;;;;22.06;39.82;99759.56;4401660;32;19985;-78
2022/05/28 07:34:16;;;;;;;;;;;;;;;21.98;40.62;99761.56;4405989;32;20004;-78
2022/05/28 07:36:43;;;;;;;;;;;;;;;22.26;38.55;99767.72;4403024;32;19986;-80
2022/05/28 07:39:10;;;;;;;;;;;;;;;22.13;39.22;99770.78;4398691;32;20411;-82
2022/05/28 07:41:37;;;;;;;;;;;;;;;22.24;37.65;99771.34;4401115;32;20021;-81
2022/05/28 07:44:04;;;;;;;;;;;;;;;22.14;38.78;99773.34;4405270;32;19993;-79
2022/05/28 07:46:31;;;;;;;;;;;;;;;21.74;38.83;99779.91;4412696;32;19970;-78
2022/05/28 07:48:59;;;;;;;;;;;;;;;21.35;40.53;99774.91;4399948;32;20041;-79
2022/05/28 07:51:31;;;;;;;;;;;;;;;22.07;37.92;99777.09;4413885;32;20024;-80
2022/05/28 07:53:58;;;;;;;;;;;;;;;22.15;37.49;99785.63;4339067;32;19983;-80
2022/05/28 07:56:24;;;;;;;;;;;;;;;22.08;38.04;99778.84;4345216;32;20003;-79
2022/05/28 07:58:54;;;;;;;;;;;;;;;22.22;37.82;99771.38;4405145;32;20698;-80
2022/05/28 08:01:24;;;;;;;;;;;;;;;22.33;38.75;99783.34;4400566;32;20388;-78
2022/05/28 08:03:52;;;;;;;;;;;;;;;22.05;37.04;99789.50;4403542;32;20445;-78
2022/05/28 08:06:19;;;;;;;;;;;;;;;22.29;36.19;99774.66;4412076;32;19980;-80
2022/05/28 08:08:46;;;;;;;;;;;;;;;22.08;37.57;99770.94;4404709;32;19994;-80
2022/05/28 08:11:14;;;;;;;;;;;;;;;21.58;40.46;99768.09;4409620;32;20047;-79
2022/05/28 08:13:41;;;;;;;;;;;;;;;21.98;39.35;99777.41;4414873;32;19981;-81
2022/05/28 08:16:08;;;;;;;;;;;;;;;22.37;36.67;99769.16;4411152;32;20053;-80
2022/05/28 08:18:37;;;;;;;;;;;;;;;22.46;36.03;99768.81;4411951;32;19974;-80
2022/05/28 08:23:49;;;;;;;;;;;;;;;22.23;37.11;99775.72;4408838;32;20001;-80
2022/05/28 08:26:19;;;;;;;;;;;;;;;22.57;35.05;99774.59;4400708;32;20347;-80
2022/05/28 08:28:47;;;;;;;;;;;;;;;22.58;35.00;99784.22;4403705;32;20016;-80
2022/05/28 08:31:14;;;;;;;;;;;;;;;22.46;36.45;99787.28;4404855;32;19978;-80
2022/05/28 08:33:42;;;;;;;;;;;;;;;22.37;36.61;99790.25;4406011;32;20016;-80
2022/05/28 08:36:09;;;;;;;;;;;;;;;22.57;34.23;99787.78;4402222;32;19962;-80
2022/05/28 08:38:40;;;;;;;;;;;;;;;22.56;35.83;99791.38;4399899;32;19974;-80
2022/05/28 08:41:09;;;;;;;;;;;;;;;22.80;33.31;99783.50;4210302;32;21584;-80
2022/05/28 08:43:38;;;;;;;;;;;;;;;23.04;31.72;99772.13;4389417;32;20031;-81
2022/05/28 08:46:07;;;;;;;;;;;;;;;22.99;33.36;99779.31;4408112;32;19973;-79
2022/05/28 08:48:43;;;;;;;;;;;;;;;23.05;33.88;99779.09;4411349;32;20003;-80
2022/05/28 08:51:10;;;;;;;;;;;;;;;22.77;33.19;99784.47;4425964;32;20269;-79
2022/05/28 08:53:39;;;;;;;;;;;;;;;22.75;32.47;99786.31;4418623;32;20316;-79
2022/05/28 08:56:06;;;;;;;;;;;;;;;22.82;33.90;99773.75;4401779;32;20033;-80
2022/05/28 08:58:34;;;;;;;;;;;;;;;22.74;34.44;99780.16;4402496;32;19997;-79
2022/05/28 09:01:07;;;;;;;;;;;;;;;22.97;35.25;99770.59;4410231;32;19993;-80
2022/05/28 09:03:54;;;;;;;;;;;;;;;23.32;32.96;99777.22;4416702;32;19994;-79
2022/05/28 09:06:41;;;;;;;;;;;;;;;23.23;32.79;99780.22;4425010;32;20026;-79
2022/05/28 09:09:09;;;;;;;;;;;;;;;23.17;33.64;99773.37;4408257;32;19986;-78
2022/05/28 09:11:37;;;;;;;;;;;;;;;22.96;34.90;99764.44;4416310;32;19995;-80
2022/05/28 09:14:16;;;;;;;;;;;;;;;22.55;34.83;99760.59;4401485;32;19986;-79
2022/05/28 09:16:43;;;;;;;;;;;;;;;22.85;33.82;99749.91;4401752;32;20323;-80
2022/05/28 09:19:14;;;;;;;;;;;;;;;21.72;36.05;99752.72;4428705;32;19985;-80
2022/05/28 09:21:41;;;;;;;;;;;;;;;22.23;35.73;99765.16;4430648;32;20004;-80
2022/05/28 09:24:19;;;;;;;;;;;;;;;22.10;37.17;99771.72;4420099;32;19986;-80
2022/05/28 09:26:46;;;;;;;;;;;;;;;22.48;36.19;99767.84;4405158;32;19981;-80
2022/05/28 09:29:22;;;;;;;;;;;;;;;22.77;34.18;99767.78;4415745;32;20707;-80
2022/05/28 09:31:55;;;;;;;;;;;;;;;22.72;35.13;99763.53;4409288;32;20386;-79
2022/05/28 09:34:25;;;;;;;;;;;;;;;23.01;35.63;99751.09;4414822;32;20412;-79
2022/05/28 09:36:52;;;;;;;;;;;;;;;23.18;36.02;99753.97;4398428;32;19986;-79
2022/05/28 09:39:39;;;;;;;;;;;;;;;22.48;36.61;99759.09;4408179;32;20003;-79
2022/05/28 09:42:09;;;;;;;;;;;;;;;22.23;36.77;99762.53;4388999;32;20006;-79
2022/05/28 09:44:41;;;;;;;;;;;;;;;22.21;37.90;99764.37;4393136;32;19996;-79
2022/05/28 09:47:12;;;;;;;;;;;;;;;22.82;35.81;99765.84;4388540;32;20040;-79
2022/05/28 09:49:49;;;;;;;;;;;;;;;22.01;37.36;99772.87;4414447;32;19986;-80
2022/05/28 09:52:27;;;;;;;;;;;;;;;22.86;35.25;99770.94;4408842;32;20031;-80
2022/05/28 09:55:13;;;;;;;;;;;;;;;22.06;38.51;99780.66;4388575;32;20287;-80
2022/05/28 09:57:54;;;;;;;;;;;;;;;22.48;37.37;99777.56;4400589;32;19970;-79
2022/05/28 10:00:21;;;;;;;;;;;;;;;21.67;38.04;99778.38;4396351;32;19994;-79
2022/05/28 10:05:48;;;;;;;;;;;;;;;22.40;36.36;99769.03;4392535;32;20465;-77
2022/05/28 10:08:16;;;;;;;;;;;;;;;22.62;35.60;99761.25;4386297;32;19993;-78
2022/05/28 10:10:51;;;;;;;;;;;;;;;22.50;37.52;99759.91;4409301;32;19993;-79
2022/05/28 10:13:19;;;;;;;;;;;;;;;22.84;35.59;99753.44;4403899;32;20944;-78
2022/05/28 10:15:48;;;;;;;;;;;;;;;23.13;36.52;99757.69;4408321;32;20028;-78
2022/05/28 10:18:22;;;;;;;;;;;;;;;23.19;35.95;99755.69;4396921;32;19996;-78
2022/05/28 10:20:59;;;;;;;;;;;;;;;22.34;37.66;99742.87;4409996;32;19998;-79
2022/05/28 10:23:26;;;;;;;;;;;;;;;23.06;37.04;99741.22;4384969;32;20332;-79
2022/05/28 10:25:53;;;;;;;;;;;;;;;23.43;38.23;99737.22;4401727;32;20445;-79
2022/05/28 10:28:30;;;;;;;;;;;;;;;23.60;36.22;99739.19;4378325;32;19992;-81
2022/05/28 10:30:57;;;;;;;;;;;;;;;23.23;34.99;99739.72;4396641;32;20024;-81
2022/05/28 10:33:27;;;;;;;;;;;;;;;23.52;31.96;99742.13;4400559;32;20001;-80
2022/05/28 10:35:53;;;;;;;;;;;;;;;23.60;32.64;99733.91;4402953;32;20073;-79
2022/05/28 10:38:21;;;;;;;;;;;;;;;23.41;33.10;99736.38;4402894;32;19970;-81
2022/05/28 10:40:49;;;;;;;;;;;;;;;22.32;36.08;99734.16;4417035;32;20042;-81
2022/05/28 10:43:38;;;;;;;;;;;;;;;23.13;33.38;99729.53;4416773;32;19990;-81
2022/05/28 10:46:18;;;;;;;;;;;;;;;23.44;33.94;99723.06;4417354;32;19990;-80
2022/05/28 10:49:01;;;;;;;;;;;;;;;23.84;31.78;99732.97;4402687;32;19982;-79
2022/05/28 10:51:47;;;;;;;;;;;;;;;23.74;34.89;99726.34;4416572;32;19974;-79
2022/05/28 10:54:32;;;;;;;;;;;;;;;24.19;31.56;99727.16;4416748;32;19978;-79
2022/05/28 10:57:01;;;;;;;;;;;;;;;24.19;30.59;99724.53;4408557;32;20311;-80
2022/05/28 10:59:47;;;;;;;;;;;;;;;24.13;30.12;99718.56;4416797;32;19977;-81
2022/05/28 11:02:23;;;;;;;;;;;;;;;24.30;29.83;99709.03;4414257;32;20374;-80
2022/05/28 11:04:59;;;;;;;;;;;;;;;24.08;30.58;99709.94;4408188;32;20030;-80
2022/05/28 11:07:49;;;;;;;;;;;;;;;23.84;33.23;99711.81;4402818;32;20041;-80
2022/05/28 11:10:33;;;;;;;;;;;;;;;23.80;32.76;99720.81;4401610;32;19978;-80
2022/05/28 11:13:07;;;;;;;;;;;;;;;23.82;31.33;99712.81;4388070;32;19989;-81
2022/05/28 11:15:56;;;;;;;;;;;;;;;23.77;29.64;99713.00;4395737;32;19986;-80
2022/05/28 11:18:23;;;;;;;;;;;;;;;23.78;27.63;99724.44;4399904;32;20008;-80
2022/05/28 11:20:53;;;;;;;;;;;;;;;23.18;30.28;99710.84;4402812;32;19970;-79
2022/05/28 11:23:20;;;;;;;;;;;;;;;23.39;27.97;99706.56;4408338;32;20057;-79
2022/05/28 11:25:55;;;;;;;;;;;;;;;23.38;29.05;99707.44;4408056;32;19978;-79
2022/05/28 11:28:28;;;;;;;;;;;;;;;23.83;27.42;99703.94;4387403;32;19996;-80
2022/05/28 11:30:56;;;;;;;;;;;;;;;24.00;27.77;99706.78;4402572;32;20618;-79
2022/05/28 11:33:25;;;;;;;;;;;;;;;23.92;30.18;99708.84;4407774;32;19993;-80
2022/05/28 11:35:59;;;;;;;;;;;;;;;24.26;29.27;99702.19;4407556;32;19982;-80
2022/05/28 11:38:30;;;;;;;;;;;;;;;24.14;29.58;99693.81;4388433;32;19974;-79
2022/05/28 11:41:00;;;;;;;;;;;;;;;24.08;29.15;99687.94;4403209;32;19989;-79
2022/05/28 11:43:28;;;;;;;;;;;;;;;24.12;27.25;99695.69;4406686;32;19982;-80
2022/05/28 11:45:58;;;;;;;;;;;;;;;23.80;28.03;99693.47;4397187;32;20572;-79
2022/05/28 11:48:28;;;;;;;;;;;;;;;23.76;30.13;99691.91;4414282;32;20759;-80
2022/05/28 11:53:46;;;;;;;;;;;;;;;23.82;28.70;99686.38;4420668;32;20036;-80
2022/05/28 11:56:28;;;;;;;;;;;;;;;23.23;30.69;99676.34;4392270;32;19977;-81
2022/05/28 11:59:11;;;;;;;;;;;;;;;23.04;32.42;99677.06;4400551;32;19985;-81
2022/05/28 12:02:01;;;;;;;;;;;;;;;23.06;30.89;99680.50;4407482;32;20448;-81
2022/05/28 12:04:30;;;;;;;;;;;;;;;23.58;29.43;99673.19;4396702;32;20410;-80
2022/05/28 12:07:02;;;;;;;;;;;;;;;23.65;29.34;99679.94;4402167;32;20354;-81
2022/05/28 12:09:32;;;;;;;;;;;;;;;23.79;28.57;99670.63;4402826;32;20318;-80
2022/05/28 12:11:59;;;;;;;;;;;;;;;23.49;27.89;99672.72;4396889;32;20391;-80
2022/05/28 12:14:27;;;;;;;;;;;;;;;23.16;28.95;99660.72;4387828;32;20010;-80
2022/05/28 12:17:14;;;;;;;;;;;;;;;23.53;27.41;99664.59;4396503;32;20047;-79
2022/05/28 12:19:44;;;;;;;;;;;;;;;23.63;26.39;99655.34;4402572;32;19989;-80
2022/05/28 12:22:22;;;;;;;;;;;;;;;23.75;25.84;99658.47;4100668;32;10000474;-80
2022/05/28 12:25:08;;;;;;;;;;;;;;;23.63;28.24;99660.66;4415279;32;20339;-80
2022/05/28 12:27:36;;;;;;;;;;;;;;;23.79;26.47;99654.78;4409452;32;20362;-80
2022/05/28 12:30:08;;;;;;;;;;;;;;;23.94;26.91;99659.44;4400946;32;19986;-80
2022/05/28 12:32:43;;;;;;;;;;;;;;;24.08;25.34;99661.47;4400865;32;19996;-81
2022/05/28 12:35:29;;;;;;;;;;;;;;;24.10;25.40;99665.78;4400517;32;20338;-81
2022/05/28 12:38:01;;;;;;;;;;;;;;;23.92;25.85;99660.41;4405977;32;19986;-82
2022/05/28 12:40:35;;;;;;;;;;;;;;;23.67;24.79;99661.38;4401152;32;20057;-82
2022/05/28 12:43:18;;;;;;;;;;;;;;;23.69;24.45;99653.44;4390774;32;20044;-82
2022/05/28 12:45:47;;;;;;;;;;;;;;;23.47;26.73;99656.91;4406263;32;19973;-82
2022/05/28 12:48:33;;;;;;;;;;;;;;;23.62;26.82;99648.38;4388869;32;19985;-79
2022/05/28 12:51:03;;;;;;;;;;;;;;;23.62;25.91;99653.66;4401752;32;20279;-81
2022/05/28 12:53:49;;;;;;;;;;;;;;;23.34;26.13;99647.75;4392329;32;19982;-82
2022/05/28 12:56:39;;;;;;;;;;;;;;;23.68;25.09;99636.69;4400694;32;20034;-81
2022/05/28 12:59:10;;;;;;;;;;;;;;;23.48;26.87;99644.53;4397676;32;19978;-82
2022/05/28 13:01:38;;;;;;;;;;;;;;;23.30;27.16;99644.38;4393654;32;20198;-81
2022/05/28 13:04:13;;;;;;;;;;;;;;;23.41;25.93;99633.38;4387397;32;19993;-80
2022/05/28 13:07:01;;;;;;;;;;;;;;;22.70;27.30;99633.41;4387095;32;20420;-81
2022/05/28 13:09:29;;;;;;;;;;;;;;;23.13;27.09;99623.91;4414426;32;19986;-80